createdAt,value
2023-01-05T00:02:17.475Z,93.67
2023-01-05T00:04:48.826Z,93.57
2023-01-05T00:07:15.651Z,93.62
2023-01-05T00:09:42.441Z,93.54
2023-01-05T00:12:28.412Z,93.58
2023-01-05T00:15:13.772Z,93.62
2023-01-05T00:17:59.102Z,93.77
2023-01-05T00:20:44.151Z,93.86
2023-01-05T00:23:10.888Z,93.70
2023-01-05T00:25:38.401Z,93.73
2023-01-05T00:28:05.616Z,93.82
2023-01-05T00:30:34.548Z,93.94
2023-01-05T00:33:01.326Z,93.73
2023-01-05T00:35:29.310Z,93.61
2023-01-05T00:37:56.119Z,93.59
2023-01-05T00:40:23.045Z,93.83
2023-01-05T00:42:49.881Z,93.93
2023-01-05T00:45:17.603Z,93.70
2023-01-05T00:47:44.830Z,93.91
2023-01-05T00:50:13.363Z,93.69
2023-01-05T00:52:40.367Z,93.77
2023-01-05T00:55:07.363Z,93.68
2023-01-05T00:57:34.185Z,93.72
2023-01-05T01:00:03.922Z,93.36
2023-01-05T01:02:30.912Z,93.46
2023-01-05T01:04:57.709Z,93.23
2023-01-05T01:07:24.562Z,93.40
2023-01-05T01:09:51.265Z,93.17
2023-01-05T01:12:18.017Z,93.27
2023-01-05T01:14:47.084Z,93.11
2023-01-05T01:17:15.836Z,93.07
2023-01-05T01:19:42.545Z,92.86
2023-01-05T01:22:09.377Z,92.93
2023-01-05T01:24:36.093Z,92.77
2023-01-05T01:27:03.792Z,92.72
2023-01-05T01:29:30.685Z,92.50
2023-01-05T01:31:57.622Z,92.39
2023-01-05T01:34:24.503Z,92.12
2023-01-05T01:36:51.300Z,92.04
2023-01-05T01:39:22.437Z,92.09
2023-01-05T01:41:54.325Z,91.87
2023-01-05T01:44:39.726Z,91.69
2023-01-05T01:47:06.569Z,91.65
2023-01-05T01:49:33.630Z,91.45
2023-01-05T01:52:06.065Z,91.08
2023-01-05T01:54:32.901Z,90.89
2023-01-05T01:56:59.829Z,90.69
2023-01-05T01:59:27.233Z,90.71
2023-01-05T02:01:58.334Z,90.47
2023-01-05T02:04:26.342Z,90.27
2023-01-05T02:06:53.551Z,90.06
2023-01-05T02:09:20.485Z,89.77
2023-01-05T02:11:47.190Z,89.65
2023-01-05T02:14:16.917Z,89.47
2023-01-05T02:16:52.535Z,89.15
2023-01-05T02:19:19.370Z,89.32
2023-01-05T02:22:12.751Z,89.28
2023-01-05T02:24:39.549Z,89.28
2023-01-05T02:27:12.130Z,88.91
2023-01-05T02:30:02.711Z,88.67
2023-01-05T02:32:36.770Z,88.42
2023-01-05T02:35:23.750Z,88.12
2023-01-05T02:38:09.905Z,87.99
2023-01-05T02:40:42.470Z,87.59
2023-01-05T02:43:10.961Z,87.37
2023-01-05T02:45:37.831Z,87.43
2023-01-05T02:48:05.021Z,87.08
2023-01-05T02:50:38.683Z,86.86
2023-01-05T02:53:32.427Z,86.59
2023-01-05T02:56:02.205Z,86.41
2023-01-05T02:58:42.640Z,86.25
2023-01-05T03:01:14.847Z,85.94
2023-01-05T03:03:48.975Z,85.71
2023-01-05T03:06:31.622Z,85.57
2023-01-05T03:09:00.391Z,85.67
2023-01-05T03:11:58.107Z,85.23
2023-01-05T03:14:25.549Z,84.69
2023-01-05T03:16:55.487Z,84.61
2023-01-05T03:19:41.854Z,84.43
2023-01-05T03:22:39.172Z,84.31
2023-01-05T03:25:28.777Z,84.10
2023-01-05T03:28:16.655Z,84.20
2023-01-05T03:31:14.352Z,84.16
2023-01-05T03:34:03.900Z,84.33
2023-01-05T03:36:32.318Z,83.98
2023-01-05T03:39:01.840Z,84.00
2023-01-05T03:41:31.309Z,83.95
2023-01-05T03:43:58.695Z,83.74
2023-01-05T03:46:25.588Z,83.99
2023-01-05T03:48:53.149Z,83.69
2023-01-05T03:51:20.854Z,83.94
2023-01-05T03:53:47.541Z,83.83
2023-01-05T03:56:14.617Z,84.09
2023-01-05T03:58:41.567Z,83.88
2023-01-05T04:01:08.733Z,84.08
2023-01-05T04:03:37.526Z,84.02
2023-01-05T04:06:07.074Z,84.01
2023-01-05T04:08:35.260Z,84.25
2023-01-05T04:11:16.545Z,83.99
2023-01-05T04:13:48.328Z,83.88
2023-01-05T04:16:16.055Z,83.88
2023-01-05T04:18:43.280Z,83.65
2023-01-05T04:21:10.434Z,83.48
2023-01-05T04:23:38.241Z,83.24
2023-01-05T04:26:05.805Z,83.34
2023-01-05T04:28:33.712Z,83.13
2023-01-05T04:31:01.536Z,83.27
2023-01-05T04:33:30.110Z,83.37
2023-01-05T04:35:57.455Z,83.63
2023-01-05T04:38:27.607Z,83.68
2023-01-05T04:40:55.403Z,83.76
2023-01-05T04:43:24.575Z,83.67
2023-01-05T04:45:51.342Z,83.81
2023-01-05T04:48:19.006Z,83.92
2023-01-05T04:50:45.876Z,83.83
2023-01-05T04:53:12.647Z,83.72
2023-01-05T04:55:45.118Z,83.96
2023-01-05T04:58:12.329Z,83.92
2023-01-05T05:00:40.526Z,83.89
2023-01-05T05:03:08.003Z,83.78
2023-01-05T05:05:35.421Z,84.00
2023-01-05T05:08:02.912Z,84.01
2023-01-05T05:10:30.293Z,83.75
2023-01-05T05:12:57.140Z,83.67
2023-01-05T05:15:24.017Z,83.79
2023-01-05T05:17:50.928Z,83.86
2023-01-05T05:20:18.131Z,83.62
2023-01-05T05:22:44.904Z,83.62
2023-01-05T05:25:15.092Z,83.83
2023-01-05T05:27:45.255Z,83.73
2023-01-05T05:30:12.166Z,83.70
2023-01-05T05:32:43.953Z,84.01
2023-01-05T05:35:11.513Z,83.83
2023-01-05T05:37:38.264Z,83.95
2023-01-05T05:40:05.441Z,84.14
2023-01-05T05:42:32.103Z,84.03
2023-01-05T05:44:58.975Z,84.07
2023-01-05T05:47:25.819Z,84.19
2023-01-05T05:49:52.621Z,84.07
2023-01-05T05:52:19.444Z,83.87
2023-01-05T05:54:46.165Z,83.93
2023-01-05T05:57:13.071Z,83.93
2023-01-05T05:59:39.835Z,83.89
2023-01-05T06:02:06.618Z,84.10
2023-01-05T06:04:33.468Z,84.15
2023-01-05T06:07:00.226Z,83.85
2023-01-05T06:09:27.377Z,83.95
2023-01-05T06:11:54.321Z,83.90
2023-01-05T06:14:21.197Z,84.09
2023-01-05T06:16:48.052Z,84.00
2023-01-05T06:19:14.837Z,84.12
2023-01-05T06:21:41.580Z,84.07
2023-01-05T06:24:08.475Z,84.26
2023-01-05T06:26:35.225Z,84.15
2023-01-05T06:29:02.037Z,84.44
2023-01-05T06:31:28.882Z,84.32
2023-01-05T06:33:55.733Z,84.13
2023-01-05T06:36:22.462Z,84.02
2023-01-05T06:38:49.291Z,83.81
2023-01-05T06:41:15.994Z,83.70
2023-01-05T06:43:42.777Z,83.63
2023-01-05T06:46:09.507Z,83.71
2023-01-05T06:48:36.455Z,83.77
2023-01-05T06:51:03.327Z,83.74
2023-01-05T06:53:30.374Z,84.03
2023-01-05T06:55:57.093Z,83.96
2023-01-05T06:58:23.863Z,83.95
2023-01-05T07:00:50.732Z,84.01
2023-01-05T07:03:18.025Z,84.06
2023-01-05T07:05:44.871Z,83.98
2023-01-05T07:08:11.675Z,83.96
2023-01-05T07:10:38.464Z,83.92
2023-01-05T07:13:05.345Z,83.73
2023-01-05T07:15:32.086Z,83.81
2023-01-05T07:17:58.945Z,83.76
2023-01-05T07:20:25.835Z,83.58
2023-01-05T07:22:52.704Z,83.69
2023-01-05T07:25:19.427Z,83.32
2023-01-05T07:27:50.560Z,83.20
2023-01-05T07:30:17.446Z,83.05
2023-01-05T07:32:44.189Z,82.68
2023-01-05T07:35:11.066Z,82.45
2023-01-05T07:37:37.869Z,82.02
2023-01-05T07:40:05.078Z,81.93
2023-01-05T07:42:32.052Z,81.55
2023-01-05T07:44:58.923Z,81.46
2023-01-05T07:47:25.761Z,81.34
2023-01-05T07:49:52.659Z,81.11
2023-01-05T07:52:19.378Z,81.10
2023-01-05T07:54:46.323Z,81.00
2023-01-05T07:57:13.125Z,80.68
2023-01-05T07:59:39.932Z,80.81
2023-01-05T08:02:06.879Z,80.73
2023-01-05T08:04:34.007Z,80.44
2023-01-05T08:07:02.100Z,80.32
2023-01-05T08:09:47.330Z,79.76
2023-01-05T08:12:14.179Z,79.39
2023-01-05T08:14:41.375Z,79.22
2023-01-05T08:17:09.022Z,79.14
2023-01-05T08:19:35.721Z,79.27
2023-01-05T08:22:02.523Z,78.82
2023-01-05T08:24:29.387Z,78.47
2023-01-05T08:26:56.287Z,78.39
2023-01-05T08:29:23.085Z,78.16
2023-01-05T08:31:50.155Z,77.95
2023-01-05T08:34:16.993Z,77.95
2023-01-05T08:36:43.929Z,77.80
2023-01-05T08:39:11.205Z,77.27
2023-01-05T08:41:39.200Z,77.22
2023-01-05T08:44:07.019Z,77.11
2023-01-05T08:46:34.921Z,77.19
2023-01-05T08:49:02.992Z,76.99
2023-01-05T08:51:30.220Z,77.12
2023-01-05T08:53:57.412Z,76.74
2023-01-05T08:56:30.540Z,76.47
2023-01-05T08:59:00.280Z,76.76
2023-01-05T09:01:27.383Z,76.71
2023-01-05T09:03:54.324Z,76.53
2023-01-05T09:06:21.316Z,76.46
2023-01-05T09:08:48.667Z,76.26
2023-01-05T09:11:17.017Z,76.15
2023-01-05T09:13:48.242Z,76.07
2023-01-05T09:16:24.906Z,76.20
2023-01-05T09:19:07.131Z,76.22
2023-01-05T09:21:34.264Z,76.06
2023-01-05T09:24:01.093Z,76.10
2023-01-05T09:26:27.918Z,75.96
2023-01-05T09:28:54.997Z,75.74
2023-01-05T09:31:22.661Z,75.55
2023-01-05T09:33:49.811Z,75.51
2023-01-05T09:36:17.891Z,75.25
2023-01-05T09:38:54.428Z,74.98
2023-01-05T09:41:35.641Z,74.92
2023-01-05T09:44:05.425Z,74.88
2023-01-05T09:46:37.266Z,74.73
2023-01-05T09:49:06.967Z,74.95
2023-01-05T09:51:34.331Z,74.81
2023-01-05T09:54:01.630Z,74.90
2023-01-05T09:59:20.279Z,74.84
2023-01-05T10:01:48.551Z,74.77
2023-01-05T10:04:17.189Z,74.55
2023-01-05T10:06:46.357Z,74.49
2023-01-05T10:09:17.194Z,74.59
2023-01-05T10:12:05.420Z,74.81
2023-01-05T10:14:40.724Z,74.67
2023-01-05T10:17:39.774Z,74.71
2023-01-05T10:20:00.511Z,74.76
2023-01-05T10:22:45.921Z,74.85
2023-01-05T10:25:26.567Z,74.65
2023-01-05T10:27:56.854Z,74.58
2023-01-05T10:30:26.038Z,74.37
2023-01-05T10:33:22.114Z,74.43
2023-01-05T10:36:10.345Z,74.04
2023-01-05T10:39:17.631Z,74.08
2023-01-05T10:41:44.465Z,73.71
2023-01-05T10:44:31.484Z,73.66
2023-01-05T10:46:59.037Z,73.67
2023-01-05T10:49:27.934Z,73.72
2023-01-05T10:51:58.282Z,73.50
2023-01-05T10:54:45.437Z,73.60
2023-01-05T10:57:35.335Z,73.46
2023-01-05T11:00:17.103Z,73.39
2023-01-05T11:03:01.343Z,73.39
2023-01-05T11:05:38.704Z,73.24
2023-01-05T11:08:17.040Z,73.31
2023-01-05T11:11:03.244Z,73.10
2023-01-05T11:13:34.673Z,73.05
2023-01-05T11:16:21.830Z,73.17
2023-01-05T11:18:49.142Z,73.02
2023-01-05T11:21:17.762Z,72.90
2023-01-05T11:23:46.195Z,72.99
2023-01-05T11:26:13.133Z,72.71
2023-01-05T11:28:48.934Z,72.72
2023-01-05T11:31:15.823Z,72.64
2023-01-05T11:33:44.690Z,72.53
2023-01-05T11:36:14.796Z,72.23
2023-01-05T11:38:41.760Z,72.01
2023-01-05T11:41:11.497Z,72.02
2023-01-05T11:43:40.298Z,72.04
2023-01-05T11:46:07.337Z,72.14
2023-01-05T11:48:35.499Z,71.84
2023-01-05T11:51:03.048Z,71.83
2023-01-05T11:53:38.159Z,71.77
2023-01-05T11:56:08.293Z,72.00
2023-01-05T11:58:42.975Z,72.04
2023-01-05T12:01:28.403Z,72.13
2023-01-05T12:04:04.477Z,71.95
2023-01-05T12:06:34.360Z,71.93
2023-01-05T12:09:04.030Z,72.02
2023-01-05T12:11:36.469Z,72.11
2023-01-05T12:14:18.306Z,72.09
2023-01-05T12:16:47.084Z,72.09
2023-01-05T12:19:40.029Z,72.25
2023-01-05T12:22:25.437Z,72.19
2023-01-05T12:24:52.254Z,72.24
2023-01-05T12:27:28.217Z,72.45
2023-01-05T12:35:58.262Z,72.25
2023-01-05T12:38:37.656Z,72.41
2023-01-05T12:41:04.485Z,72.48
2023-01-05T12:43:40.666Z,72.29
2023-01-05T12:46:18.015Z,72.43
2023-01-05T12:48:57.883Z,72.35
2023-01-05T12:51:24.741Z,72.37
2023-01-05T12:53:57.152Z,72.23
2023-01-05T12:56:43.414Z,72.53
2023-01-05T12:59:30.720Z,72.44
2023-01-05T13:02:16.201Z,72.27
2023-01-05T13:05:02.735Z,72.11
2023-01-05T13:07:43.605Z,72.30
2023-01-05T13:10:37.030Z,72.06
2023-01-05T13:13:05.893Z,71.94
2023-01-05T13:15:38.967Z,71.84
2023-01-05T13:18:12.104Z,71.93
2023-01-05T13:20:54.335Z,71.66
2023-01-05T13:23:23.633Z,71.64
2023-01-05T13:25:54.765Z,71.29
2023-01-05T13:28:24.586Z,71.22
2023-01-05T13:31:06.789Z,71.08
2023-01-05T13:33:52.081Z,71.01
2023-01-05T13:36:36.371Z,70.82
2023-01-05T13:39:03.279Z,70.41
2023-01-05T13:41:44.918Z,70.27
2023-01-05T13:44:21.357Z,70.01
2023-01-05T13:47:06.984Z,69.52
2023-01-05T13:49:57.022Z,68.85
2023-01-05T13:52:26.899Z,69.05
2023-01-05T13:55:01.913Z,69.05
2023-01-05T13:57:40.062Z,69.15
2023-01-05T14:00:21.976Z,68.88
2023-01-05T14:03:15.316Z,69.01
2023-01-05T14:05:42.308Z,68.95
2023-01-05T14:08:20.272Z,68.39
2023-01-05T14:11:07.221Z,68.22
2023-01-05T14:13:44.001Z,68.24
2023-01-05T14:16:29.547Z,68.41
2023-01-05T14:19:10.486Z,68.20
2023-01-05T14:22:00.389Z,68.62
2023-01-05T14:24:27.204Z,68.65
2023-01-05T14:27:01.907Z,68.82
2023-01-05T14:30:00.987Z,68.99
2023-01-05T14:32:32.840Z,69.06
2023-01-05T14:35:19.696Z,69.38
2023-01-05T14:37:55.934Z,69.69
2023-01-05T14:40:31.597Z,69.79
2023-01-05T14:42:59.537Z,70.07
2023-01-05T14:45:30.712Z,70.38
2023-01-05T14:47:59.019Z,70.54
2023-01-05T14:50:27.265Z,70.74
2023-01-05T14:52:55.890Z,71.05
2023-01-05T14:55:45.972Z,71.16
2023-01-05T14:58:14.630Z,71.39
2023-01-05T15:03:23.120Z,71.78
2023-01-05T15:05:54.815Z,72.07
2023-01-05T15:08:21.752Z,72.23
2023-01-05T15:10:58.379Z,72.41
2023-01-05T15:13:31.399Z,72.48
2023-01-05T15:16:07.570Z,72.67
2023-01-05T15:18:37.572Z,72.90
2023-01-05T15:21:16.304Z,73.18
2023-01-05T15:23:49.782Z,73.15
2023-01-05T15:26:36.941Z,73.55
2023-01-05T15:29:24.197Z,73.70
2023-01-05T15:31:56.801Z,73.69
2023-01-05T15:34:44.864Z,73.96
2023-01-05T15:37:34.926Z,73.98
2023-01-05T15:40:04.377Z,74.32
2023-01-05T15:42:31.247Z,74.48
2023-01-05T15:44:58.407Z,74.77
2023-01-05T15:47:27.396Z,75.03
2023-01-05T15:50:02.145Z,74.91
2023-01-05T15:52:36.800Z,75.22
2023-01-05T15:55:17.314Z,75.34
2023-01-05T15:57:52.511Z,75.64
2023-01-05T16:00:22.784Z,75.75
2023-01-05T16:02:49.886Z,75.80
2023-01-05T16:05:21.107Z,76.24
2023-01-05T16:08:00.020Z,76.22
2023-01-05T16:10:35.995Z,76.57
2023-01-05T16:13:15.015Z,76.84
2023-01-05T16:15:43.192Z,76.84
2023-01-05T16:18:14.620Z,77.44
2023-01-05T16:20:46.565Z,77.59
2023-01-05T16:23:17.242Z,77.73
2023-01-05T16:25:49.342Z,78.01
2023-01-05T16:28:17.704Z,78.11
2023-01-05T16:30:45.737Z,78.51
2023-01-05T16:33:36.056Z,78.53
2023-01-05T16:36:07.221Z,78.58
2023-01-05T16:38:34.444Z,78.84
2023-01-05T16:41:10.245Z,78.83
2023-01-05T16:43:38.386Z,78.95
2023-01-05T16:46:20.511Z,79.04
2023-01-05T16:48:48.062Z,79.15
2023-01-05T16:51:16.699Z,79.37
2023-01-05T16:53:45.460Z,79.11
2023-01-05T16:56:41.834Z,79.10
2023-01-05T16:59:37.847Z,79.37
2023-01-05T17:02:24.705Z,79.57
2023-01-05T17:04:51.799Z,79.40
2023-01-05T17:07:20.038Z,79.48
2023-01-05T17:09:47.157Z,79.51
2023-01-05T17:12:14.536Z,79.67
2023-01-05T17:14:43.113Z,79.63
2023-01-05T17:17:13.500Z,79.87
2023-01-05T17:19:40.424Z,79.71
2023-01-05T17:22:10.375Z,80.02
2023-01-05T17:24:39.090Z,79.91
2023-01-05T17:27:06.046Z,79.95
2023-01-05T17:29:33.355Z,79.86
2023-01-05T17:32:00.306Z,80.22
2023-01-05T17:34:27.321Z,79.97
2023-01-05T17:36:55.464Z,80.21
2023-01-05T17:39:22.775Z,80.22
2023-01-05T17:41:49.611Z,80.44
2023-01-05T17:44:16.627Z,80.25
2023-01-05T17:46:44.394Z,80.48
2023-01-05T17:49:19.543Z,80.47
2023-01-05T17:51:48.619Z,80.70
2023-01-05T17:54:15.535Z,80.70
2023-01-05T17:56:42.669Z,80.60
2023-01-05T17:59:09.411Z,80.62
2023-01-05T18:01:36.552Z,80.60
2023-01-05T18:04:05.279Z,80.81
2023-01-05T18:06:32.122Z,80.80
2023-01-05T18:08:58.947Z,81.18
2023-01-05T18:11:26.054Z,81.09
2023-01-05T18:13:52.842Z,81.24
2023-01-05T18:16:19.635Z,81.07
2023-01-05T18:18:46.691Z,81.36
2023-01-05T18:21:13.532Z,81.26
2023-01-05T18:23:40.276Z,81.36
2023-01-05T18:26:08.326Z,81.42
2023-01-05T18:28:35.725Z,81.68
2023-01-05T18:31:08.993Z,81.53
2023-01-05T18:33:35.984Z,81.78
2023-01-05T18:38:39.907Z,81.78
2023-01-05T18:41:07.237Z,81.95
2023-01-05T18:43:34.074Z,82.07
2023-01-05T18:46:01.499Z,81.96
2023-01-05T18:48:28.446Z,81.99
2023-01-05T18:50:55.286Z,82.11
2023-01-05T18:53:22.654Z,82.20
2023-01-05T18:55:49.797Z,82.35
2023-01-05T18:58:16.869Z,82.23
2023-01-05T19:00:45.145Z,82.42
2023-01-05T19:03:11.962Z,82.52
2023-01-05T19:05:41.012Z,82.52
2023-01-05T19:08:08.953Z,82.60
2023-01-05T19:10:35.961Z,82.70
2023-01-05T19:13:03.006Z,82.89
2023-01-05T19:15:29.847Z,82.68
2023-01-05T19:17:57.395Z,82.96
2023-01-05T19:20:24.173Z,83.00
2023-01-05T19:22:51.956Z,82.99
2023-01-05T19:25:19.354Z,83.15
2023-01-05T19:27:46.360Z,83.16
2023-01-05T19:30:15.442Z,83.20
2023-01-05T19:32:42.215Z,83.25
2023-01-05T19:35:09.302Z,83.01
2023-01-05T19:37:36.275Z,83.13
2023-01-05T19:40:03.168Z,83.15
2023-01-05T19:42:31.428Z,83.30
2023-01-05T19:44:58.355Z,83.42
2023-01-05T19:47:25.345Z,83.63
2023-01-05T19:49:53.360Z,83.52
2023-01-05T19:52:20.443Z,83.41
2023-01-05T19:54:47.672Z,83.63
2023-01-05T19:57:14.478Z,83.77
2023-01-05T19:59:41.292Z,83.67
2023-01-05T20:02:08.142Z,83.70
2023-01-05T20:04:35.016Z,83.83
2023-01-05T20:07:04.019Z,84.12
2023-01-05T20:09:31.211Z,84.08
2023-01-05T20:12:09.316Z,84.18
2023-01-05T20:14:41.607Z,84.02
2023-01-05T20:17:10.803Z,84.21
2023-01-05T20:19:39.099Z,84.29
2023-01-05T20:22:07.652Z,84.20
2023-01-05T20:24:36.899Z,84.28
2023-01-05T20:27:06.516Z,84.50
2023-01-05T20:29:33.642Z,84.33
2023-01-05T20:32:03.372Z,84.59
2023-01-05T20:34:32.390Z,84.65
2023-01-05T20:36:59.698Z,84.47
2023-01-05T20:39:26.791Z,84.46
2023-01-05T20:41:54.159Z,84.71
2023-01-05T20:44:22.524Z,84.82
2023-01-05T20:46:50.330Z,84.79
2023-01-05T20:49:17.465Z,84.56
2023-01-05T20:51:44.351Z,84.69
2023-01-05T20:54:11.959Z,84.69
2023-01-05T20:56:40.196Z,84.98
2023-01-05T20:59:09.134Z,84.77
2023-01-05T21:01:36.290Z,84.98
2023-01-05T21:04:04.126Z,85.17
2023-01-05T21:06:31.054Z,84.89
2023-01-05T21:08:58.099Z,85.25
2023-01-05T21:11:26.175Z,85.33
2023-01-05T21:13:54.674Z,85.08
2023-01-05T21:16:26.006Z,85.08
2023-01-05T21:18:53.320Z,85.15
2023-01-05T21:21:21.251Z,85.23
2023-01-05T21:23:49.961Z,85.50
2023-01-05T21:26:17.315Z,85.57
2023-01-05T21:28:45.138Z,85.30
2023-01-05T21:31:13.648Z,85.52
2023-01-05T21:33:41.068Z,85.44
2023-01-05T21:36:08.758Z,85.58
2023-01-05T21:38:59.888Z,85.50
2023-01-05T21:41:42.562Z,85.53
2023-01-05T21:44:11.132Z,85.44
2023-01-05T21:46:38.726Z,85.52
2023-01-05T21:49:06.440Z,85.53
2023-01-05T21:51:51.868Z,85.81
2023-01-05T21:54:38.030Z,85.90
2023-01-05T21:57:05.159Z,85.51
2023-01-05T21:59:32.229Z,85.54
2023-01-05T22:01:59.174Z,85.83
2023-01-05T22:04:25.880Z,85.83
2023-01-05T22:06:53.004Z,85.84
2023-01-05T22:09:19.916Z,85.58
2023-01-05T22:11:47.054Z,85.86
2023-01-05T22:14:14.068Z,85.79
2023-01-05T22:16:40.927Z,85.79
2023-01-05T22:19:07.721Z,86.02
2023-01-05T22:21:34.499Z,85.87
2023-01-05T22:24:01.227Z,85.79
2023-01-05T22:26:28.163Z,86.06
2023-01-05T22:28:54.890Z,85.87
2023-01-05T22:31:23.382Z,86.29
2023-01-05T22:33:51.397Z,85.97
2023-01-05T22:36:19.248Z,86.15
2023-01-05T22:38:47.173Z,86.29
2023-01-05T22:41:15.115Z,86.12
2023-01-05T22:43:42.762Z,86.01
2023-01-05T22:46:14.163Z,86.24
2023-01-05T22:48:42.450Z,85.99
2023-01-05T22:51:09.149Z,86.07
2023-01-05T22:53:36.039Z,85.95
2023-01-05T22:56:02.745Z,86.10
2023-01-05T22:58:29.484Z,86.08
2023-01-05T23:00:56.413Z,86.09
2023-01-05T23:03:23.167Z,86.26
2023-01-05T23:05:49.821Z,86.40
2023-01-05T23:08:16.676Z,86.46
2023-01-05T23:10:43.448Z,86.23
2023-01-05T23:13:10.192Z,86.23
2023-01-05T23:15:36.951Z,86.35
2023-01-05T23:18:03.930Z,86.49
2023-01-05T23:20:30.672Z,86.32
2023-01-05T23:22:57.791Z,86.24
2023-01-05T23:25:24.423Z,86.34
2023-01-05T23:27:52.723Z,86.21
2023-01-05T23:30:19.483Z,86.37
2023-01-05T23:32:46.251Z,86.49
2023-01-05T23:35:12.948Z,86.33
2023-01-05T23:37:39.827Z,86.51
2023-01-05T23:40:06.885Z,86.25
2023-01-05T23:42:46.676Z,86.43
2023-01-05T23:45:14.332Z,86.46
2023-01-05T23:47:41.049Z,86.30
2023-01-05T23:50:08.098Z,86.60
2023-01-05T23:52:34.898Z,86.62
2023-01-05T23:55:01.702Z,86.54
2023-01-05T23:57:29.759Z,86.50
2023-01-05T23:59:56.632Z,86.63
